sensor_id;sensor_type;location;lat;lon;timestamp;pressure;altitude;pressure_sealevel;temperature;humidity
61682;BME280;47577;43.610;25.010;2023-12-04T00:00:47;101212.38;;;0.60;72.36
61682;BME280;47577;43.610;25.010;2023-12-04T00:03:13;101213.91;;;0.50;72.36
61682;BME280;47577;43.610;25.010;2023-12-04T00:05:38;101212.31;;;0.57;71.90
61682;BME280;47577;43.610;25.010;2023-12-04T00:08:07;101226.16;;;0.53;72.77
61682;BME280;47577;43.610;25.010;2023-12-04T00:10:32;101227.16;;;0.60;72.23
61682;BME280;47577;43.610;25.010;2023-12-04T00:12:58;101237.66;;;0.61;72.51
61682;BME280;47577;43.610;25.010;2023-12-04T00:15:24;101244.69;;;0.62;70.54
61682;BME280;47577;43.610;25.010;2023-12-04T00:17:49;101236.91;;;0.65;72.31
61682;BME280;47577;43.610;25.010;2023-12-04T00:20:15;101251.06;;;0.75;71.53
61682;BME280;47577;43.610;25.010;2023-12-04T00:22:41;101238.28;;;0.92;70.00
61682;BME280;47577;43.610;25.010;2023-12-04T00:25:06;101230.38;;;0.90;70.60
61682;BME280;47577;43.610;25.010;2023-12-04T00:27:32;101226.66;;;0.78;70.12
61682;BME280;47577;43.610;25.010;2023-12-04T00:29:58;101226.69;;;0.79;70.26
61682;BME280;47577;43.610;25.010;2023-12-04T00:32:24;101221.13;;;0.62;71.13
61682;BME280;47577;43.610;25.010;2023-12-04T00:34:49;101228.34;;;0.76;70.69
61682;BME280;47577;43.610;25.010;2023-12-04T00:37:15;101240.81;;;0.86;69.36
61682;BME280;47577;43.610;25.010;2023-12-04T00:39:41;101240.38;;;0.66;69.95
61682;BME280;47577;43.610;25.010;2023-12-04T00:42:06;101244.91;;;0.73;69.84
61682;BME280;47577;43.610;25.010;2023-12-04T00:44:32;101245.56;;;0.63;69.51
61682;BME280;47577;43.610;25.010;2023-12-04T00:46:57;101250.06;;;0.68;69.25
61682;BME280;47577;43.610;25.010;2023-12-04T00:49:23;101244.06;;;0.76;70.01
61682;BME280;47577;43.610;25.010;2023-12-04T00:51:49;101251.09;;;0.77;69.20
61682;BME280;47577;43.610;25.010;2023-12-04T00:54:15;101262.78;;;0.94;70.50
61682;BME280;47577;43.610;25.010;2023-12-04T00:56:41;101213.25;;;0.61;69.45
61682;BME280;47577;43.610;25.010;2023-12-04T00:59:08;101283.00;;;1.03;68.84
61682;BME280;47577;43.610;25.010;2023-12-04T01:01:35;101261.44;;;0.70;71.88
61682;BME280;47577;43.610;25.010;2023-12-04T01:04:01;101245.75;;;0.72;69.53
61682;BME280;47577;43.610;25.010;2023-12-04T01:06:27;101247.00;;;0.48;70.46
61682;BME280;47577;43.610;25.010;2023-12-04T01:08:54;101207.66;;;0.44;69.17
61682;BME280;47577;43.610;25.010;2023-12-04T01:11:20;101226.84;;;0.43;68.98
61682;BME280;47577;43.610;25.010;2023-12-04T01:13:47;101220.06;;;0.52;70.20
61682;BME280;47577;43.610;25.010;2023-12-04T01:16:14;101252.53;;;0.62;68.88
61682;BME280;47577;43.610;25.010;2023-12-04T01:18:41;101256.72;;;0.54;70.30
61682;BME280;47577;43.610;25.010;2023-12-04T01:21:08;101252.84;;;0.79;71.15
61682;BME280;47577;43.610;25.010;2023-12-04T01:23:36;101222.91;;;0.63;68.28
61682;BME280;47577;43.610;25.010;2023-12-04T01:26:05;101234.84;;;0.50;69.31
61682;BME280;47577;43.610;25.010;2023-12-04T01:28:31;101245.72;;;0.28;68.08
61682;BME280;47577;43.610;25.010;2023-12-04T01:30:57;101229.84;;;0.20;68.08
61682;BME280;47577;43.610;25.010;2023-12-04T01:33:23;101251.66;;;0.21;69.93
61682;BME280;47577;43.610;25.010;2023-12-04T01:35:49;101228.13;;;-0.17;70.86
61682;BME280;47577;43.610;25.010;2023-12-04T01:38:14;101215.25;;;-0.08;69.80
61682;BME280;47577;43.610;25.010;2023-12-04T01:40:40;101237.56;;;0.14;70.27
61682;BME280;47577;43.610;25.010;2023-12-04T01:43:06;101253.91;;;0.04;69.70
61682;BME280;47577;43.610;25.010;2023-12-04T01:45:32;101279.69;;;0.26;70.38
61682;BME280;47577;43.610;25.010;2023-12-04T01:47:58;101293.28;;;0.11;69.69
61682;BME280;47577;43.610;25.010;2023-12-04T01:50:24;101250.16;;;-0.08;71.35
61682;BME280;47577;43.610;25.010;2023-12-04T01:52:52;101305.13;;;0.33;68.96
61682;BME280;47577;43.610;25.010;2023-12-04T01:55:19;101250.53;;;0.09;68.98
61682;BME280;47577;43.610;25.010;2023-12-04T01:57:50;101247.56;;;-0.06;68.70
61682;BME280;47577;43.610;25.010;2023-12-04T02:00:18;101258.19;;;0.00;69.42
61682;BME280;47577;43.610;25.010;2023-12-04T02:02:46;101306.69;;;0.25;69.86
61682;BME280;47577;43.610;25.010;2023-12-04T02:05:13;101265.09;;;-0.02;69.47
61682;BME280;47577;43.610;25.010;2023-12-04T02:07:40;101244.63;;;-0.20;68.91
61682;BME280;47577;43.610;25.010;2023-12-04T02:10:06;101263.94;;;-0.13;69.21
61682;BME280;47577;43.610;25.010;2023-12-04T02:12:32;101253.38;;;-0.18;70.79
61682;BME280;47577;43.610;25.010;2023-12-04T02:14:59;101258.63;;;-0.16;68.87
61682;BME280;47577;43.610;25.010;2023-12-04T02:17:25;101266.81;;;-0.03;68.82
61682;BME280;47577;43.610;25.010;2023-12-04T02:19:52;101264.94;;;-0.08;70.47
61682;BME280;47577;43.610;25.010;2023-12-04T02:22:19;101338.25;;;-0.04;69.74
61682;BME280;47577;43.610;25.010;2023-12-04T02:24:45;101287.19;;;-0.26;69.31
61682;BME280;47577;43.610;25.010;2023-12-04T02:27:21;101276.94;;;-0.16;69.45
61682;BME280;47577;43.610;25.010;2023-12-04T02:29:53;101352.03;;;0.26;69.66
61682;BME280;47577;43.610;25.010;2023-12-04T02:32:21;101288.63;;;-0.02;68.75
61682;BME280;47577;43.610;25.010;2023-12-04T02:34:49;101282.41;;;-0.07;68.93
61682;BME280;47577;43.610;25.010;2023-12-04T02:37:16;101290.66;;;-0.27;68.31
61682;BME280;47577;43.610;25.010;2023-12-04T02:40:14;101301.03;;;-0.30;67.94
61682;BME280;47577;43.610;25.010;2023-12-04T02:42:44;101362.41;;;-0.14;69.46
61682;BME280;47577;43.610;25.010;2023-12-04T02:45:10;101343.19;;;-0.16;69.21
61682;BME280;47577;43.610;25.010;2023-12-04T02:47:36;101357.56;;;-0.33;69.16
61682;BME280;47577;43.610;25.010;2023-12-04T02:50:01;101348.13;;;-0.28;69.66
61682;BME280;47577;43.610;25.010;2023-12-04T02:52:27;101357.09;;;-0.17;69.86
61682;BME280;47577;43.610;25.010;2023-12-04T02:54:53;101361.13;;;-0.30;69.31
61682;BME280;47577;43.610;25.010;2023-12-04T02:57:19;101363.97;;;-0.22;69.26
61682;BME280;47577;43.610;25.010;2023-12-04T02:59:45;101366.38;;;-0.30;69.74
61682;BME280;47577;43.610;25.010;2023-12-04T03:02:11;101368.56;;;-0.47;69.76
61682;BME280;47577;43.610;25.010;2023-12-04T03:04:36;101349.34;;;-0.47;70.78
61682;BME280;47577;43.610;25.010;2023-12-04T03:07:02;101364.31;;;-0.42;69.58
61682;BME280;47577;43.610;25.010;2023-12-04T03:09:28;101363.91;;;-0.24;69.85
61682;BME280;47577;43.610;25.010;2023-12-04T03:11:53;101357.81;;;-0.24;69.66
61682;BME280;47577;43.610;25.010;2023-12-04T03:14:19;101357.78;;;-0.26;69.96
61682;BME280;47577;43.610;25.010;2023-12-04T03:16:45;101364.75;;;-0.25;70.77
61682;BME280;47577;43.610;25.010;2023-12-04T03:19:10;101366.94;;;-0.07;71.06
61682;BME280;47577;43.610;25.010;2023-12-04T03:21:36;101371.56;;;0.04;70.15
61682;BME280;47577;43.610;25.010;2023-12-04T03:24:02;101378.72;;;0.11;68.37
61682;BME280;47577;43.610;25.010;2023-12-04T03:26:27;101370.50;;;-0.05;68.23
61682;BME280;47577;43.610;25.010;2023-12-04T03:28:54;101357.97;;;-0.16;68.92
61682;BME280;47577;43.610;25.010;2023-12-04T03:31:19;101368.41;;;-0.18;70.86
61682;BME280;47577;43.610;25.010;2023-12-04T03:33:45;101370.06;;;-0.22;70.47
61682;BME280;47577;43.610;25.010;2023-12-04T03:36:11;101369.09;;;-0.25;69.24
61682;BME280;47577;43.610;25.010;2023-12-04T03:38:36;101368.19;;;-0.27;70.33
61682;BME280;47577;43.610;25.010;2023-12-04T03:41:02;101370.94;;;-0.21;70.90
61682;BME280;47577;43.610;25.010;2023-12-04T03:43:27;101375.25;;;-0.23;70.88
61682;BME280;47577;43.610;25.010;2023-12-04T03:45:53;101374.72;;;-0.10;70.05
61682;BME280;47577;43.610;25.010;2023-12-04T03:48:19;101371.31;;;-0.07;70.15
61682;BME280;47577;43.610;25.010;2023-12-04T03:50:44;101375.84;;;0.02;68.57
61682;BME280;47577;43.610;25.010;2023-12-04T03:53:10;101385.41;;;-0.01;69.90
61682;BME280;47577;43.610;25.010;2023-12-04T03:55:35;101383.75;;;0.03;70.74
61682;BME280;47577;43.610;25.010;2023-12-04T03:58:01;101383.81;;;0.06;70.21
61682;BME280;47577;43.610;25.010;2023-12-04T04:00:27;101367.59;;;-0.15;70.75
61682;BME280;47577;43.610;25.010;2023-12-04T04:02:52;101398.41;;;-0.04;70.90
61682;BME280;47577;43.610;25.010;2023-12-04T04:05:18;101399.09;;;-0.11;71.78
61682;BME280;47577;43.610;25.010;2023-12-04T04:07:43;101398.06;;;-0.17;71.36
61682;BME280;47577;43.610;25.010;2023-12-04T04:10:09;101393.25;;;-0.35;72.36
61682;BME280;47577;43.610;25.010;2023-12-04T04:12:35;101392.28;;;-0.38;72.89
61682;BME280;47577;43.610;25.010;2023-12-04T04:15:01;101395.72;;;-0.40;73.34
61682;BME280;47577;43.610;25.010;2023-12-04T04:17:26;101405.22;;;-0.44;74.24
61682;BME280;47577;43.610;25.010;2023-12-04T04:19:52;101407.84;;;-0.44;73.54
61682;BME280;47577;43.610;25.010;2023-12-04T04:22:19;101406.84;;;-0.47;74.09
61682;BME280;47577;43.610;25.010;2023-12-04T04:24:46;101414.75;;;-0.44;74.22
61682;BME280;47577;43.610;25.010;2023-12-04T04:27:11;101398.81;;;-0.55;75.28
61682;BME280;47577;43.610;25.010;2023-12-04T04:29:37;101408.13;;;-0.65;75.39
61682;BME280;47577;43.610;25.010;2023-12-04T04:32:03;101408.72;;;-0.74;75.09
61682;BME280;47577;43.610;25.010;2023-12-04T04:34:29;101401.47;;;-0.84;75.43
61682;BME280;47577;43.610;25.010;2023-12-04T04:36:54;101401.31;;;-0.90;76.14
61682;BME280;47577;43.610;25.010;2023-12-04T04:39:20;101405.69;;;-0.89;76.28
61682;BME280;47577;43.610;25.010;2023-12-04T04:41:46;101413.56;;;-0.87;75.62
61682;BME280;47577;43.610;25.010;2023-12-04T04:44:12;101416.97;;;-0.90;76.56
61682;BME280;47577;43.610;25.010;2023-12-04T04:46:37;101426.59;;;-0.89;76.96
61682;BME280;47577;43.610;25.010;2023-12-04T04:49:03;101419.63;;;-0.88;76.08
61682;BME280;47577;43.610;25.010;2023-12-04T04:51:32;101423.03;;;-0.91;76.60
61682;BME280;47577;43.610;25.010;2023-12-04T04:53:58;101421.47;;;-0.84;76.57
61682;BME280;47577;43.610;25.010;2023-12-04T04:56:24;101426.50;;;-0.92;77.12
61682;BME280;47577;43.610;25.010;2023-12-04T04:58:50;101428.03;;;-0.99;76.96
61682;BME280;47577;43.610;25.010;2023-12-04T05:01:15;101428.78;;;-1.03;76.54
61682;BME280;47577;43.610;25.010;2023-12-04T05:03:41;101440.38;;;-0.93;76.62
61682;BME280;47577;43.610;25.010;2023-12-04T05:06:06;101444.94;;;-0.86;76.77
61682;BME280;47577;43.610;25.010;2023-12-04T05:08:32;101443.03;;;-0.92;77.08
61682;BME280;47577;43.610;25.010;2023-12-04T05:10:58;101443.97;;;-0.89;76.52
61682;BME280;47577;43.610;25.010;2023-12-04T05:13:23;101443.59;;;-1.02;76.50
61682;BME280;47577;43.610;25.010;2023-12-04T05:15:49;101442.81;;;-0.99;76.79
61682;BME280;47577;43.610;25.010;2023-12-04T05:18:15;101441.66;;;-1.36;77.74
61682;BME280;47577;43.610;25.010;2023-12-04T05:20:40;101447.00;;;-1.04;77.25
61682;BME280;47577;43.610;25.010;2023-12-04T05:23:06;101446.31;;;-0.99;76.74
61682;BME280;47577;43.610;25.010;2023-12-04T05:25:31;101448.97;;;-0.97;77.15
61682;BME280;47577;43.610;25.010;2023-12-04T05:27:57;101438.53;;;-0.96;77.41
61682;BME280;47577;43.610;25.010;2023-12-04T05:30:23;101440.31;;;-0.95;77.36
61682;BME280;47577;43.610;25.010;2023-12-04T05:32:48;101449.31;;;-0.85;77.03
61682;BME280;47577;43.610;25.010;2023-12-04T05:35:15;101450.16;;;-0.86;76.74
61682;BME280;47577;43.610;25.010;2023-12-04T05:37:41;101455.34;;;-0.87;76.58
61682;BME280;47577;43.610;25.010;2023-12-04T05:40:08;101450.19;;;-0.84;77.37
61682;BME280;47577;43.610;25.010;2023-12-04T05:42:34;101459.22;;;-0.73;76.78
61682;BME280;47577;43.610;25.010;2023-12-04T05:44:59;101465.81;;;-0.86;77.26
61682;BME280;47577;43.610;25.010;2023-12-04T05:47:26;101461.06;;;-0.99;77.21
61682;BME280;47577;43.610;25.010;2023-12-04T05:49:51;101467.00;;;-1.05;76.76
61682;BME280;47577;43.610;25.010;2023-12-04T05:52:17;101472.31;;;-1.31;77.69
61682;BME280;47577;43.610;25.010;2023-12-04T05:54:44;101454.22;;;-1.24;77.59
61682;BME280;47577;43.610;25.010;2023-12-04T05:57:09;101464.28;;;-1.37;77.79
61682;BME280;47577;43.610;25.010;2023-12-04T05:59:35;101470.72;;;-1.53;77.91
61682;BME280;47577;43.610;25.010;2023-12-04T06:02:01;101465.09;;;-1.38;79.97
61682;BME280;47577;43.610;25.010;2023-12-04T06:04:26;101471.75;;;-1.20;78.73
61682;BME280;47577;43.610;25.010;2023-12-04T06:06:52;101477.72;;;-1.24;78.71
61682;BME280;47577;43.610;25.010;2023-12-04T06:09:18;101469.44;;;-1.11;79.43
61682;BME280;47577;43.610;25.010;2023-12-04T06:11:44;101481.13;;;-0.98;79.96
61682;BME280;47577;43.610;25.010;2023-12-04T06:14:09;101482.94;;;-0.96;79.54
61682;BME280;47577;43.610;25.010;2023-12-04T06:16:37;101482.16;;;-0.93;78.88
61682;BME280;47577;43.610;25.010;2023-12-04T06:19:02;101486.16;;;-1.04;77.65
61682;BME280;47577;43.610;25.010;2023-12-04T06:21:30;101479.41;;;-0.98;77.91
61682;BME280;47577;43.610;25.010;2023-12-04T06:23:55;101494.34;;;-0.94;79.26
61682;BME280;47577;43.610;25.010;2023-12-04T06:26:21;101484.03;;;-0.89;77.52
61682;BME280;47577;43.610;25.010;2023-12-04T06:28:47;101483.78;;;-0.97;77.40
61682;BME280;47577;43.610;25.010;2023-12-04T06:31:13;101495.44;;;-0.85;76.52
61682;BME280;47577;43.610;25.010;2023-12-04T06:33:39;101494.38;;;-0.92;76.71
61682;BME280;47577;43.610;25.010;2023-12-04T06:36:06;101504.13;;;-0.86;76.92
61682;BME280;47577;43.610;25.010;2023-12-04T06:38:33;101497.19;;;-0.84;77.41
61682;BME280;47577;43.610;25.010;2023-12-04T06:41:01;101491.25;;;-0.80;76.03
61682;BME280;47577;43.610;25.010;2023-12-04T06:43:26;101497.81;;;-0.64;76.47
61682;BME280;47577;43.610;25.010;2023-12-04T06:45:53;101503.34;;;-0.53;74.53
61682;BME280;47577;43.610;25.010;2023-12-04T06:48:22;101498.25;;;-0.49;74.34
61682;BME280;47577;43.610;25.010;2023-12-04T06:50:51;101516.03;;;-0.37;75.13
61682;BME280;47577;43.610;25.010;2023-12-04T06:53:16;101511.63;;;-0.38;73.25
61682;BME280;47577;43.610;25.010;2023-12-04T06:55:42;101505.72;;;-0.31;73.98
61682;BME280;47577;43.610;25.010;2023-12-04T06:58:08;101505.94;;;-0.23;73.76
61682;BME280;47577;43.610;25.010;2023-12-04T07:00:34;101516.75;;;-0.11;73.36
61682;BME280;47577;43.610;25.010;2023-12-04T07:02:59;101519.28;;;-0.14;72.39
61682;BME280;47577;43.610;25.010;2023-12-04T07:05:25;101512.88;;;-0.25;70.94
61682;BME280;47577;43.610;25.010;2023-12-04T07:07:50;101508.91;;;-0.11;70.55
61682;BME280;47577;43.610;25.010;2023-12-04T07:10:16;101518.00;;;0.02;71.41
61682;BME280;47577;43.610;25.010;2023-12-04T07:12:42;101523.25;;;0.04;70.60
61682;BME280;47577;43.610;25.010;2023-12-04T07:15:09;101523.78;;;-0.08;70.17
61682;BME280;47577;43.610;25.010;2023-12-04T07:17:36;101531.97;;;0.04;69.12
61682;BME280;47577;43.610;25.010;2023-12-04T07:20:02;101520.47;;;-0.03;69.11
61682;BME280;47577;43.610;25.010;2023-12-04T07:22:27;101529.59;;;0.12;70.02
61682;BME280;47577;43.610;25.010;2023-12-04T07:24:53;101521.59;;;0.07;69.08
61682;BME280;47577;43.610;25.010;2023-12-04T07:27:19;101537.13;;;0.01;68.72
61682;BME280;47577;43.610;25.010;2023-12-04T07:29:44;101535.50;;;0.06;67.70
61682;BME280;47577;43.610;25.010;2023-12-04T07:32:10;101522.44;;;0.06;68.10
61682;BME280;47577;43.610;25.010;2023-12-04T07:34:36;101530.53;;;0.15;68.55
61682;BME280;47577;43.610;25.010;2023-12-04T07:37:02;101539.88;;;0.06;67.46
61682;BME280;47577;43.610;25.010;2023-12-04T07:39:28;101538.34;;;0.14;66.71
61682;BME280;47577;43.610;25.010;2023-12-04T07:41:53;101539.19;;;-0.19;66.65
61682;BME280;47577;43.610;25.010;2023-12-04T07:44:19;101542.56;;;0.09;66.94
61682;BME280;47577;43.610;25.010;2023-12-04T07:46:45;101541.13;;;0.20;66.29
61682;BME280;47577;43.610;25.010;2023-12-04T07:49:12;101562.38;;;0.31;65.80
61682;BME280;47577;43.610;25.010;2023-12-04T07:51:37;101552.94;;;0.38;65.98
61682;BME280;47577;43.610;25.010;2023-12-04T07:54:04;101551.56;;;0.52;66.34
61682;BME280;47577;43.610;25.010;2023-12-04T07:56:29;101548.00;;;0.50;65.93
61682;BME280;47577;43.610;25.010;2023-12-04T07:58:55;101548.03;;;0.51;66.13
61682;BME280;47577;43.610;25.010;2023-12-04T08:01:21;101561.16;;;0.53;65.01
61682;BME280;47577;43.610;25.010;2023-12-04T08:03:48;101557.63;;;0.51;65.52
61682;BME280;47577;43.610;25.010;2023-12-04T08:06:14;101555.31;;;0.28;65.54
61682;BME280;47577;43.610;25.010;2023-12-04T08:08:41;101544.97;;;0.33;65.74
61682;BME280;47577;43.610;25.010;2023-12-04T08:11:09;101564.06;;;0.30;65.02
61682;BME280;47577;43.610;25.010;2023-12-04T08:13:35;101566.38;;;0.51;65.14
61682;BME280;47577;43.610;25.010;2023-12-04T08:16:01;101558.97;;;0.68;65.27
61682;BME280;47577;43.610;25.010;2023-12-04T08:18:26;101569.72;;;0.81;65.86
61682;BME280;47577;43.610;25.010;2023-12-04T08:20:52;101554.34;;;0.60;64.81
61682;BME280;47577;43.610;25.010;2023-12-04T08:23:18;101556.81;;;0.88;64.94
61682;BME280;47577;43.610;25.010;2023-12-04T08:25:44;101556.00;;;0.89;64.56
61682;BME280;47577;43.610;25.010;2023-12-04T08:28:09;101556.06;;;0.93;64.37
61682;BME280;47577;43.610;25.010;2023-12-04T08:30:35;101559.88;;;1.05;64.49
61682;BME280;47577;43.610;25.010;2023-12-04T08:33:00;101570.53;;;1.15;64.67
61682;BME280;47577;43.610;25.010;2023-12-04T08:35:26;101568.00;;;1.18;64.27
61682;BME280;47577;43.610;25.010;2023-12-04T08:37:52;101574.50;;;1.35;64.84
61682;BME280;47577;43.610;25.010;2023-12-04T08:40:17;101565.38;;;1.18;63.74
61682;BME280;47577;43.610;25.010;2023-12-04T08:42:43;101572.34;;;1.17;66.28
61682;BME280;47577;43.610;25.010;2023-12-04T08:45:10;101577.88;;;1.30;64.00
61682;BME280;47577;43.610;25.010;2023-12-04T08:47:36;101584.00;;;1.30;63.35
61682;BME280;47577;43.610;25.010;2023-12-04T08:50:02;101575.25;;;1.30;63.48
61682;BME280;47577;43.610;25.010;2023-12-04T08:52:28;101568.97;;;1.23;64.37
61682;BME280;47577;43.610;25.010;2023-12-04T08:54:53;101576.06;;;1.67;65.31
61682;BME280;47577;43.610;25.010;2023-12-04T08:57:19;101568.53;;;1.82;63.80
61682;BME280;47577;43.610;25.010;2023-12-04T08:59:45;101564.22;;;1.86;61.75
61682;BME280;47577;43.610;25.010;2023-12-04T09:02:11;101553.13;;;1.56;62.59
61682;BME280;47577;43.610;25.010;2023-12-04T09:04:36;101581.56;;;1.79;63.15
61682;BME280;47577;43.610;25.010;2023-12-04T09:07:02;101558.81;;;1.78;62.56
61682;BME280;47577;43.610;25.010;2023-12-04T09:09:28;101552.66;;;1.76;63.24
61682;BME280;47577;43.610;25.010;2023-12-04T09:11:54;101544.13;;;1.86;61.49
61682;BME280;47577;43.610;25.010;2023-12-04T09:14:19;101533.59;;;1.85;63.26
61682;BME280;47577;43.610;25.010;2023-12-04T09:16:45;101538.28;;;1.99;63.55
61682;BME280;47577;43.610;25.010;2023-12-04T09:19:11;101538.94;;;1.89;61.55
61682;BME280;47577;43.610;25.010;2023-12-04T09:21:36;101530.34;;;1.96;63.02
61682;BME280;47577;43.610;25.010;2023-12-04T09:24:02;101534.44;;;2.28;63.59
61682;BME280;47577;43.610;25.010;2023-12-04T09:26:28;101538.97;;;1.91;60.98
61682;BME280;47577;43.610;25.010;2023-12-04T09:28:54;101534.78;;;2.00;63.14
61682;BME280;47577;43.610;25.010;2023-12-04T09:31:19;101537.84;;;2.22;62.89
61682;BME280;47577;43.610;25.010;2023-12-04T09:33:45;101533.47;;;2.23;63.64
61682;BME280;47577;43.610;25.010;2023-12-04T09:36:12;101525.63;;;2.24;62.53
61682;BME280;47577;43.610;25.010;2023-12-04T09:38:38;101525.34;;;2.10;63.10
61682;BME280;47577;43.610;25.010;2023-12-04T09:41:06;101508.19;;;2.28;61.93
61682;BME280;47577;43.610;25.010;2023-12-04T09:43:34;101508.63;;;2.54;62.42
61682;BME280;47577;43.610;25.010;2023-12-04T09:46:01;101503.84;;;2.30;61.29
61682;BME280;47577;43.610;25.010;2023-12-04T09:48:27;101497.75;;;2.31;61.66
61682;BME280;47577;43.610;25.010;2023-12-04T09:50:53;101496.81;;;2.27;62.83
61682;BME280;47577;43.610;25.010;2023-12-04T09:53:20;101498.31;;;2.14;61.79
61682;BME280;47577;43.610;25.010;2023-12-04T09:55:50;101501.72;;;2.58;61.88
61682;BME280;47577;43.610;25.010;2023-12-04T09:58:19;101507.03;;;2.64;62.11
61682;BME280;47577;43.610;25.010;2023-12-04T10:00:46;101500.28;;;2.26;59.78
61682;BME280;47577;43.610;25.010;2023-12-04T10:03:11;101495.22;;;2.37;60.31
61682;BME280;47577;43.610;25.010;2023-12-04T10:05:44;101489.16;;;2.41;61.85
61682;BME280;47577;43.610;25.010;2023-12-04T10:08:10;101476.34;;;2.60;60.35
61682;BME280;47577;43.610;25.010;2023-12-04T10:10:36;101491.25;;;2.62;59.70
61682;BME280;47577;43.610;25.010;2023-12-04T10:13:02;101463.84;;;2.43;61.36
61682;BME280;47577;43.610;25.010;2023-12-04T10:15:28;101472.59;;;2.44;60.94
61682;BME280;47577;43.610;25.010;2023-12-04T10:17:54;101470.19;;;2.56;60.00
61682;BME280;47577;43.610;25.010;2023-12-04T10:20:19;101480.66;;;2.54;60.79
61682;BME280;47577;43.610;25.010;2023-12-04T10:22:59;101479.53;;;2.40;61.04
61682;BME280;47577;43.610;25.010;2023-12-04T10:25:28;101476.16;;;2.49;61.55
61682;BME280;47577;43.610;25.010;2023-12-04T10:28:10;101457.06;;;2.56;61.60
61682;BME280;47577;43.610;25.010;2023-12-04T10:30:36;101471.22;;;2.66;60.99
61682;BME280;47577;43.610;25.010;2023-12-04T10:33:03;101465.75;;;2.53;60.10
61682;BME280;47577;43.610;25.010;2023-12-04T10:35:31;101458.16;;;2.72;60.88
61682;BME280;47577;43.610;25.010;2023-12-04T10:37:58;101453.16;;;2.89;59.77
61682;BME280;47577;43.610;25.010;2023-12-04T10:40:29;101453.31;;;2.98;61.33
61682;BME280;47577;43.610;25.010;2023-12-04T10:45:38;101464.28;;;3.32;56.84
61682;BME280;47577;43.610;25.010;2023-12-04T10:48:05;101462.78;;;2.88;58.87
61682;BME280;47577;43.610;25.010;2023-12-04T10:50:35;101451.91;;;3.26;57.98
61682;BME280;47577;43.610;25.010;2023-12-04T10:53:03;101456.22;;;3.20;57.89
61682;BME280;47577;43.610;25.010;2023-12-04T10:55:33;101460.56;;;3.18;57.17
61682;BME280;47577;43.610;25.010;2023-12-04T10:58:05;101460.53;;;3.15;58.69
61682;BME280;47577;43.610;25.010;2023-12-04T11:00:36;101462.63;;;3.40;58.29
61682;BME280;47577;43.610;25.010;2023-12-04T11:03:10;101461.94;;;3.57;58.45
61682;BME280;47577;43.610;25.010;2023-12-04T11:05:41;101463.66;;;3.56;59.21
61682;BME280;47577;43.610;25.010;2023-12-04T11:08:11;101466.63;;;3.84;58.69
61682;BME280;47577;43.610;25.010;2023-12-04T11:10:56;101468.50;;;3.96;58.71
61682;BME280;47577;43.610;25.010;2023-12-04T11:13:27;101477.09;;;3.78;57.54
61682;BME280;47577;43.610;25.010;2023-12-04T11:15:59;101478.16;;;3.94;57.34
61682;BME280;47577;43.610;25.010;2023-12-04T11:18:27;101479.97;;;4.01;58.48
61682;BME280;47577;43.610;25.010;2023-12-04T11:20:56;101469.53;;;4.10;58.62
61682;BME280;47577;43.610;25.010;2023-12-04T11:23:24;101473.28;;;4.38;58.73
61682;BME280;47577;43.610;25.010;2023-12-04T11:25:50;101476.75;;;4.30;54.58
61682;BME280;47577;43.610;25.010;2023-12-04T11:28:16;101469.78;;;4.36;59.54
61682;BME280;47577;43.610;25.010;2023-12-04T11:30:43;101472.63;;;4.63;55.96
61682;BME280;47577;43.610;25.010;2023-12-04T11:33:10;101458.66;;;4.71;58.34
61682;BME280;47577;43.610;25.010;2023-12-04T11:35:38;101459.53;;;4.73;55.09
61682;BME280;47577;43.610;25.010;2023-12-04T11:38:06;101459.31;;;4.44;55.69
61682;BME280;47577;43.610;25.010;2023-12-04T11:40:34;101465.69;;;4.74;54.91
61682;BME280;47577;43.610;25.010;2023-12-04T11:43:20;101453.97;;;4.35;56.76
61682;BME280;47577;43.610;25.010;2023-12-04T11:45:47;101456.28;;;4.02;55.65
61682;BME280;47577;43.610;25.010;2023-12-04T11:48:14;101455.47;;;4.07;55.15
61682;BME280;47577;43.610;25.010;2023-12-04T11:50:40;101446.72;;;4.11;55.98
61682;BME280;47577;43.610;25.010;2023-12-04T11:53:08;101453.00;;;4.25;57.85
61682;BME280;47577;43.610;25.010;2023-12-04T11:55:39;101463.47;;;4.20;55.63
61682;BME280;47577;43.610;25.010;2023-12-04T11:58:09;101468.72;;;4.19;55.82
61682;BME280;47577;43.610;25.010;2023-12-04T12:00:36;101460.00;;;4.21;56.44
61682;BME280;47577;43.610;25.010;2023-12-04T12:03:05;101448.78;;;4.46;55.38
61682;BME280;47577;43.610;25.010;2023-12-04T12:05:36;101434.00;;;4.68;57.56
61682;BME280;47577;43.610;25.010;2023-12-04T12:08:04;101452.47;;;4.71;55.43
61682;BME280;47577;43.610;25.010;2023-12-04T12:10:30;101447.25;;;4.75;54.75
61682;BME280;47577;43.610;25.010;2023-12-04T12:12:56;101448.09;;;4.68;54.02
61682;BME280;47577;43.610;25.010;2023-12-04T12:15:22;101446.34;;;4.72;55.34
61682;BME280;47577;43.610;25.010;2023-12-04T12:17:49;101439.13;;;4.46;55.01
61682;BME280;47577;43.610;25.010;2023-12-04T12:20:15;101431.94;;;4.27;53.94
61682;BME280;47577;43.610;25.010;2023-12-04T12:22:41;101430.44;;;4.58;55.72
61682;BME280;47577;43.610;25.010;2023-12-04T12:25:10;101419.03;;;4.61;54.62
61682;BME280;47577;43.610;25.010;2023-12-04T12:27:37;101427.97;;;4.87;56.09
61682;BME280;47577;43.610;25.010;2023-12-04T12:30:03;101417.56;;;5.07;53.48
61682;BME280;47577;43.610;25.010;2023-12-04T12:32:33;101419.38;;;5.18;54.88
61682;BME280;47577;43.610;25.010;2023-12-04T12:34:59;101413.84;;;4.70;53.96
61682;BME280;47577;43.610;25.010;2023-12-04T12:37:25;101421.00;;;4.95;53.74
61682;BME280;47577;43.610;25.010;2023-12-04T12:39:51;101421.00;;;4.91;54.53
61682;BME280;47577;43.610;25.010;2023-12-04T12:42:27;101421.94;;;5.07;55.03
61682;BME280;47577;43.610;25.010;2023-12-04T12:44:54;101424.59;;;5.10;54.62